Time;durP1;ratioP1;P1;durP2;ratioP2;P2;SDS_P1;SDS_P2;PMS_P1;PMS_P2;Temp;Humidity;BMP_temperature;BMP_pressure;BME280_temperature;BME280_humidity;BME280_pressure;Samples;Min_cycle;Max_cycle;Signal;HPM_P1;HPM_P2
2022/01/19 00:01:49;;;;;;;2.98;1.57;;;;;;;-4.51;67.18;100669.57;1692078;84;21413;-74
2022/01/19 00:04:15;;;;;;;5.60;1.80;;;;;;;-4.51;67.23;100674.73;1683704;84;21488;-74
2022/01/19 00:06:42;;;;;;;2.70;1.60;;;;;;;-4.50;67.19;100681.58;1677012;84;21478;-75
2022/01/19 00:09:09;;;;;;;3.20;1.70;;;;;;;-4.50;67.19;100682.44;1672620;84;21438;-74
2022/01/19 00:11:35;;;;;;;7.67;1.70;;;;;;;-4.45;67.12;100696.53;1676044;84;22482;-74
2022/01/19 00:14:03;;;;;;;5.25;1.80;;;;;;;-4.46;66.81;100697.41;1695579;84;21097;-75
2022/01/19 00:16:31;;;;;;;2.83;1.40;;;;;;;-4.47;66.42;100713.32;1688924;83;21446;-76
2022/01/19 00:18:58;;;;;;;3.22;1.35;;;;;;;-4.46;65.91;100710.30;1678293;84;21080;-75
2022/01/19 00:21:24;;;;;;;1.85;1.30;;;;;;;-4.46;65.37;100714.17;1677100;84;21056;-74
2022/01/19 00:23:51;;;;;;;2.70;1.30;;;;;;;-4.46;64.94;100715.46;1694449;84;21813;-73
2022/01/19 00:26:17;;;;;;;1.87;1.17;;;;;;;-4.46;64.28;100713.73;1696210;83;21007;-74
2022/01/19 00:28:44;;;;;;;3.67;1.20;;;;;;;-4.44;63.52;100708.55;1685769;83;21059;-74
2022/01/19 00:31:11;;;;;;;2.95;1.20;;;;;;;-4.43;63.20;100715.44;1688725;83;21048;-75
2022/01/19 00:33:38;;;;;;;2.45;1.20;;;;;;;-4.44;62.58;100719.75;1685168;84;20976;-75
2022/01/19 00:36:05;;;;;;;2.00;1.20;;;;;;;-4.46;61.97;100721.47;1689840;84;22514;-74
2022/01/19 00:38:33;;;;;;;6.00;1.20;;;;;;;-4.46;61.97;100712.88;1684616;83;22182;-74
2022/01/19 00:41:01;;;;;;;2.60;1.50;;;;;;;-4.48;61.77;100715.48;1689791;84;21313;-74
2022/01/19 00:43:28;;;;;;;2.25;1.20;;;;;;;-4.49;61.45;100725.38;1681120;84;21016;-74
2022/01/19 00:45:54;;;;;;;4.03;1.40;;;;;;;-4.53;61.23;100719.86;1677603;84;21032;-75
2022/01/19 00:48:20;;;;;;;2.42;1.40;;;;;;;-4.56;61.35;100734.48;1679696;83;21808;-75
2022/01/19 00:50:47;;;;;;;2.58;1.20;;;;;;;-4.57;61.19;100731.50;1681845;84;20962;-75
2022/01/19 00:53:14;;;;;;;3.52;1.40;;;;;;;-4.58;61.16;100734.52;1698446;84;21004;-73
2022/01/19 00:55:41;;;;;;;3.98;1.07;;;;;;;-4.58;61.17;100730.65;1696478;83;21022;-74
2022/01/19 00:58:09;;;;;;;2.65;1.50;;;;;;;-4.58;61.32;100737.09;1693278;83;21609;-74
2022/01/19 01:00:35;;;;;;;4.50;1.45;;;;;;;-4.57;61.37;100744.39;1692638;84;21844;-73
2022/01/19 01:03:03;;;;;;;2.98;1.30;;;;;;;-4.56;61.63;100734.48;1686246;83;20990;-74
2022/01/19 01:05:32;;;;;;;1.98;0.98;;;;;;;-4.55;61.54;100731.04;1697610;84;21000;-74
2022/01/19 01:07:58;;;;;;;2.22;1.10;;;;;;;-4.60;61.65;100734.97;1682697;83;21102;-73
2022/01/19 01:10:25;;;;;;;2.75;1.22;;;;;;;-4.63;61.69;100737.59;1688360;84;20960;-75
2022/01/19 01:12:54;;;;;;;4.17;1.40;;;;;;;-4.63;61.83;100735.02;1662226;84;21834;-73
2022/01/19 01:15:36;;;;;;;2.35;1.10;;;;;;;-4.63;61.89;100733.30;1669478;84;21035;-73
2022/01/19 01:20:36;;;;;;;2.87;1.57;;;;;;;-4.65;62.19;100736.30;1696409;84;21035;-73
2022/01/19 01:23:07;;;;;;;2.47;1.40;;;;;;;-4.64;62.22;100733.28;1686432;84;21458;-74
2022/01/19 01:25:35;;;;;;;5.45;1.65;;;;;;;-4.64;62.37;100730.27;1692349;84;21878;-74
2022/01/19 01:28:01;;;;;;;3.33;1.52;;;;;;;-4.64;62.49;100730.70;1676578;83;21558;-73
2022/01/19 01:30:28;;;;;;;2.35;1.55;;;;;;;-4.66;62.70;100738.46;1697041;83;21427;-74
2022/01/19 01:32:54;;;;;;;4.87;1.62;;;;;;;-4.65;62.99;100740.60;1693477;83;21490;-73
2022/01/19 01:35:21;;;;;;;3.05;1.55;;;;;;;-4.64;63.05;100750.89;1690095;84;21039;-74
2022/01/19 01:37:48;;;;;;;4.78;1.57;;;;;;;-4.62;63.16;100750.90;1699495;83;21392;-75
2022/01/19 01:40:17;;;;;;;4.92;1.50;;;;;;;-4.59;63.41;100750.00;1679910;84;21328;-75
2022/01/19 01:42:45;;;;;;;3.58;1.67;;;;;;;-4.59;63.63;100744.84;1690057;84;21020;-74
2022/01/19 01:45:15;;;;;;;3.20;1.87;;;;;;;-4.59;63.83;100741.83;1697916;83;21024;-75
2022/01/19 01:47:47;;;;;;;4.85;1.92;;;;;;;-4.62;64.01;100750.46;1692965;84;21609;-74
2022/01/19 01:55:24;;;;;;;3.35;1.70;;;;;;;-4.66;64.65;100753.92;1685823;83;21035;-75
2022/01/19 01:57:51;;;;;;;3.58;1.98;;;;;;;-4.67;64.88;100743.20;1692602;83;21055;-73
2022/01/19 02:00:22;;;;;;;3.55;2.10;;;;;;;-4.70;65.02;100754.84;1697131;84;20972;-74
2022/01/19 02:02:50;;;;;;;4.90;2.20;;;;;;;-4.71;65.21;100759.58;1681179;84;21896;-74
2022/01/19 02:05:21;;;;;;;5.20;2.30;;;;;;;-4.71;65.37;100755.72;1674216;83;20976;-74
2022/01/19 02:08:00;;;;;;;4.95;2.30;;;;;;;-4.73;65.44;100762.62;1682456;84;21012;-74
2022/01/19 02:21:39;;;;;;;4.97;2.77;;;;;;;-4.80;66.41;100772.56;1689231;84;21000;-74
2022/01/19 02:24:10;;;;;;;5.60;2.50;;;;;;;-4.81;66.48;100764.85;1705171;82;21051;-74
2022/01/19 02:30:08;;;;;;;4.65;2.75;;;;;;;-4.79;66.53;100765.69;1689530;84;21931;-74
2022/01/19 02:42:39;;;;;;;4.97;2.10;;;;;;;-4.82;64.94;100768.30;1682835;84;22284;-75
2022/01/19 02:49:55;;;;;;;5.53;2.45;;;;;;;-4.83;64.13;100769.14;1693445;84;21518;-74
2022/01/19 02:52:23;;;;;;;3.50;1.80;;;;;;;-4.87;63.68;100775.20;1695919;83;21542;-74
2022/01/19 02:54:50;;;;;;;3.62;2.00;;;;;;;-4.88;63.69;100783.81;1686029;84;21788;-74
2022/01/19 02:57:20;;;;;;;4.35;1.80;;;;;;;-4.90;63.65;100776.10;1671682;83;21036;-74
2022/01/19 03:06:33;;;;;;;3.83;1.72;;;;;;;-4.89;64.05;100777.80;1672930;84;21019;-73
2022/01/19 03:10:16;;;;;;;2.67;1.90;;;;;;;-4.98;63.98;100769.73;1684485;83;20967;-75
2022/01/19 03:12:43;;;;;;;4.05;1.82;;;;;;;-4.99;64.05;100776.19;1679232;84;21031;-74
2022/01/19 03:15:11;;;;;;;4.78;2.60;;;;;;;-5.01;63.97;100774.06;1690264;84;21475;-74
2022/01/19 03:17:37;;;;;;;3.62;2.05;;;;;;;-5.02;63.76;100773.63;1698021;82;20997;-75
2022/01/19 03:20:06;;;;;;;5.75;2.10;;;;;;;-5.04;63.61;100770.21;1697102;84;21845;-75
2022/01/19 03:22:42;;;;;;;3.98;2.33;;;;;;;-5.09;63.28;100777.14;1685956;84;21024;-76
2022/01/19 03:25:02;;;;;;;4.83;1.90;;;;;;;-5.12;63.32;100780.58;1695033;84;21119;-74
2022/01/19 03:27:29;;;;;;;3.35;2.00;;;;;;;-5.12;63.32;100777.15;1692813;84;21623;-73
2022/01/19 03:29:55;;;;;;;3.77;1.90;;;;;;;-5.13;63.31;100787.89;1688320;84;21470;-73
2022/01/19 03:32:22;;;;;;;3.92;2.20;;;;;;;-5.15;63.20;100790.91;1680557;84;21791;-74
2022/01/19 03:34:49;;;;;;;4.00;1.92;;;;;;;-5.16;62.83;100784.50;1694996;84;21004;-74
2022/01/19 03:37:16;;;;;;;3.55;2.27;;;;;;;-5.19;62.87;100787.96;1694147;83;21506;-74
2022/01/19 03:39:42;;;;;;;6.90;2.33;;;;;;;-5.21;62.76;100789.27;1672277;83;21079;-74
2022/01/19 03:42:09;;;;;;;5.97;2.50;;;;;;;-5.25;62.78;100790.57;1682390;84;20917;-74
2022/01/19 03:44:36;;;;;;;6.12;2.50;;;;;;;-5.26;62.92;100788.87;1693915;83;21788;-73
2022/01/19 03:47:04;;;;;;;5.28;2.33;;;;;;;-5.29;62.98;100794.05;1646159;84;21039;-73
2022/01/19 03:49:34;;;;;;;4.50;2.30;;;;;;;-5.29;63.04;100783.32;1692552;83;21024;-75
2022/01/19 03:52:05;;;;;;;4.10;2.30;;;;;;;-5.32;62.93;100794.05;1694382;84;21498;-74
2022/01/19 03:54:39;;;;;;;11.05;6.42;;;;;;;-5.39;62.90;100789.41;1694840;83;21023;-74
2022/01/19 03:57:07;;;;;;;4.50;2.72;;;;;;;-5.40;62.99;100785.53;1708193;82;21834;-74
2022/01/19 03:59:34;;;;;;;15.93;8.35;;;;;;;-5.42;63.06;100795.84;1702075;82;21047;-75
2022/01/19 04:02:02;;;;;;;20.17;12.63;;;;;;;-5.43;63.13;100800.58;1677146;85;21061;-75
2022/01/19 04:07:16;;;;;;;6.05;3.42;;;;;;;-5.44;63.16;100800.59;1685882;84;21438;-74
2022/01/19 04:09:45;;;;;;;21.25;12.65;;;;;;;-5.49;63.04;100810.94;1687767;82;21851;-74
2022/01/19 04:12:18;;;;;;;14.50;7.90;;;;;;;-5.51;63.08;100812.64;1676101;85;21015;-73
2022/01/19 04:14:42;;;;;;;8.55;3.80;;;;;;;-5.56;63.11;100811.84;1675752;85;21018;-74
2022/01/19 04:17:13;;;;;;;7.20;3.33;;;;;;;-5.57;63.13;100821.70;1654144;84;20988;-75
2022/01/19 04:19:46;;;;;;;4.12;1.98;;;;;;;-5.59;63.13;100807.57;1687955;84;21079;-73
2022/01/19 04:22:23;;;;;;;4.50;2.42;;;;;;;-5.62;63.15;100814.00;1671995;84;21956;-74
2022/01/19 04:24:52;;;;;;;4.97;2.12;;;;;;;-5.66;63.26;100812.76;1696300;84;21040;-73
2022/01/19 04:30:05;;;;;;;4.55;2.30;;;;;;;-5.73;63.33;100816.23;1693579;83;21063;-74
2022/01/19 04:32:41;;;;;;;5.20;3.05;;;;;;;-5.76;63.42;100811.96;1700752;84;21407;-75
2022/01/19 04:35:05;;;;;;;5.22;2.60;;;;;;;-5.79;63.48;100812.84;1680404;84;21859;-75
2022/01/19 04:37:42;;;;;;;7.60;2.80;;;;;;;-5.80;63.56;100820.11;1695525;84;21425;-75
2022/01/19 04:45:57;;;;;;;4.85;2.90;;;;;;;-5.80;63.71;100835.54;1691470;84;20976;-74
2022/01/19 05:04:31;;;;;;;3.95;2.05;;;;;;;-5.82;64.16;100860.42;1655253;86;21475;-70
2022/01/19 05:07:16;;;;;;;4.45;2.00;;;;;;;-5.81;64.23;100865.14;1695605;84;21024;-70
2022/01/19 05:14:48;;;;;;;3.77;1.90;;;;;;;-5.88;64.23;100858.34;1692592;83;21857;-70
2022/01/19 05:17:15;;;;;;;2.87;1.55;;;;;;;-5.94;64.27;100856.66;1702542;83;21012;-74
2022/01/19 05:19:42;;;;;;;5.00;1.90;;;;;;;-6.00;64.25;100847.68;1669077;84;21107;-71
2022/01/19 05:22:09;;;;;;;3.80;1.98;;;;;;;-6.06;64.31;100843.87;1665939;86;20988;-72
2022/01/19 05:24:53;;;;;;;5.67;2.15;;;;;;;-6.12;64.43;100848.59;1679335;84;21024;-71
2022/01/19 05:27:27;;;;;;;3.05;1.70;;;;;;;-6.16;64.55;100839.63;1689983;84;22605;-73
2022/01/19 05:29:54;;;;;;;3.35;1.82;;;;;;;-6.19;64.63;100841.75;1691095;83;21031;-71
2022/01/19 05:32:20;;;;;;;3.65;2.00;;;;;;;-6.22;64.66;100839.20;1692480;83;21074;-71
2022/01/19 05:34:47;;;;;;;3.33;1.62;;;;;;;-6.23;64.72;100848.21;1689743;84;21086;-73
2022/01/19 05:37:22;;;;;;;3.87;1.98;;;;;;;-6.29;64.81;100844.36;1679789;84;21067;-70
2022/01/19 05:39:53;;;;;;;5.55;2.37;;;;;;;-6.31;64.93;100855.94;1694060;84;21815;-70
2022/01/19 05:42:31;;;;;;;5.95;2.80;;;;;;;-6.36;65.05;100849.98;1690257;83;21032;-71
2022/01/19 05:44:57;;;;;;;5.45;2.98;;;;;;;-6.40;65.10;100848.25;1692590;84;20961;-71
2022/01/19 05:47:25;;;;;;;4.37;2.45;;;;;;;-6.43;65.21;100848.27;1692191;84;21023;-68
2022/01/19 05:49:53;;;;;;;7.15;2.62;;;;;;;-6.46;65.44;100848.30;1676728;84;21518;-70
2022/01/19 05:52:19;;;;;;;6.75;2.47;;;;;;;-6.47;65.47;100856.40;1673277;83;22524;-70
2022/01/19 05:54:48;;;;;;;7.22;3.75;;;;;;;-6.49;65.56;100856.84;1694861;84;20932;-70
2022/01/19 05:57:14;;;;;;;5.80;2.50;;;;;;;-6.49;65.62;100852.98;1704424;82;21043;-71
2022/01/19 05:59:43;;;;;;;5.35;2.50;;;;;;;-6.49;65.61;100855.55;1683569;83;21058;-70
2022/01/19 06:02:09;;;;;;;7.50;3.08;;;;;;;-6.49;65.67;100858.55;1707796;84;20961;-70
2022/01/19 06:04:36;;;;;;;5.08;2.72;;;;;;;-6.49;65.72;100850.41;1700869;84;22553;-71
2022/01/19 06:07:04;;;;;;;6.05;2.90;;;;;;;-6.49;65.79;100848.27;1678134;84;21004;-71
2022/01/19 06:12:13;;;;;;;5.83;2.87;;;;;;;-6.50;65.72;100867.98;1705496;82;21027;-70
2022/01/19 06:14:43;;;;;;;8.65;4.58;;;;;;;-6.50;65.79;100864.55;1705579;82;21382;-71
2022/01/19 06:17:13;;;;;;;9.30;4.33;;;;;;;-6.49;65.89;100871.41;1707877;83;21853;-70
2022/01/19 06:19:40;;;;;;;5.55;2.75;;;;;;;-6.50;65.91;100873.12;1703928;84;20971;-71
2022/01/19 06:22:08;;;;;;;4.83;2.58;;;;;;;-6.49;65.83;100879.97;1699396;83;21004;-70
2022/01/19 06:24:35;;;;;;;4.10;2.42;;;;;;;-6.48;65.93;100888.09;1706372;84;21019;-69
2022/01/19 06:27:04;;;;;;;5.95;2.60;;;;;;;-6.45;65.93;100882.98;1707999;82;21162;-70
2022/01/19 06:29:32;;;;;;;5.70;3.45;;;;;;;-6.43;65.89;100888.96;1705713;84;22512;-71
2022/01/19 06:32:00;;;;;;;5.95;3.20;;;;;;;-6.40;65.85;100896.66;1702498;84;21418;-70
2022/01/19 06:34:26;;;;;;;9.68;3.75;;;;;;;-6.38;65.94;100899.22;1703245;82;20987;-70
2022/01/19 06:36:55;;;;;;;6.72;2.83;;;;;;;-6.35;65.89;100893.66;1694639;83;21018;-71
2022/01/19 06:39:26;;;;;;;5.83;2.95;;;;;;;-6.30;65.89;100895.35;1680170;84;21538;-71
2022/01/19 06:41:54;;;;;;;5.75;2.15;;;;;;;-6.25;65.79;100892.36;1682719;84;21866;-71
2022/01/19 06:44:21;;;;;;;4.00;2.20;;;;;;;-6.22;65.74;100893.63;1689915;85;20939;-72
2022/01/19 06:46:48;;;;;;;5.28;2.22;;;;;;;-6.17;65.71;100897.05;1678857;85;21000;-71
2022/01/19 06:49:16;;;;;;;3.22;1.82;;;;;;;-6.12;65.73;100892.73;1705452;82;21060;-71
2022/01/19 06:51:43;;;;;;;4.42;2.20;;;;;;;-6.06;65.59;100900.44;1702200;84;21063;-71
2022/01/19 06:54:09;;;;;;;4.50;2.20;;;;;;;-6.02;65.51;100902.13;1683830;84;23927;-70
2022/01/19 06:56:40;;;;;;;5.17;2.25;;;;;;;-5.94;65.58;100905.97;1675177;84;20992;-71
2022/01/19 06:59:18;;;;;;;8.75;5.22;;;;;;;-5.86;65.38;100910.63;1645700;85;21036;-71
2022/01/19 07:02:04;;;;;;;5.53;2.25;;;;;;;-5.81;65.30;100920.02;1690623;83;21017;-71
2022/01/19 07:04:50;;;;;;;3.80;2.00;;;;;;;-5.72;65.11;100917.84;1697098;84;20979;-72
2022/01/19 07:07:28;;;;;;;4.12;2.20;;;;;;;-5.67;64.96;100930.27;1681900;83;23066;-71
2022/01/19 07:09:59;;;;;;;4.17;2.40;;;;;;;-5.61;64.86;100926.80;1696273;83;21439;-72
2022/01/19 07:12:29;;;;;;;10.05;6.95;;;;;;;-5.53;64.85;100928.47;1699345;84;21012;-71
2022/01/19 07:14:55;;;;;;;7.15;3.70;;;;;;;-5.44;64.75;100917.27;1689889;84;21012;-71
2022/01/19 07:17:22;;;;;;;4.28;2.47;;;;;;;-5.34;64.62;100929.23;1694176;83;21073;-72
2022/01/19 07:19:50;;;;;;;7.97;3.75;;;;;;;-5.30;64.19;100934.80;1683877;83;21886;-73
2022/01/19 07:22:16;;;;;;;6.40;2.47;;;;;;;-5.26;63.98;100926.19;1691242;83;21008;-73
2022/01/19 07:24:44;;;;;;;9.20;4.42;;;;;;;-5.19;64.02;100918.86;1664541;84;21580;-70
2022/01/19 07:27:10;;;;;;;6.10;2.70;;;;;;;-5.11;63.98;100930.41;1693056;84;20993;-69
2022/01/19 07:29:37;;;;;;;5.33;2.98;;;;;;;-5.05;63.63;100929.05;1692021;84;21028;-69
2022/01/19 07:32:06;;;;;;;12.07;6.25;;;;;;;-4.97;63.59;100922.56;1687878;84;21847;-75
2022/01/19 07:34:33;;;;;;;57.98;28.95;;;;;;;-4.95;63.24;100931.13;1668486;84;21022;-74
2022/01/19 07:37:03;;;;;;;11.80;6.53;;;;;;;-4.88;63.37;100932.80;1694191;83;21610;-79
2022/01/19 07:39:30;;;;;;;6.78;3.00;;;;;;;-4.82;63.08;100926.33;1691484;84;20995;-77
2022/01/19 07:41:59;;;;;;;30.08;18.77;;;;;;;-4.79;62.92;100926.30;1688265;85;21040;-80
2022/01/19 07:44:44;;;;;;;11.68;7.72;;;;;;;-4.79;62.81;100926.30;1699240;84;21845;-76
2022/01/19 07:47:28;;;;;;;4.30;2.67;;;;;;;-4.69;62.96;100920.63;1604985;88;21482;-73
2022/01/19 07:50:13;;;;;;;4.87;2.37;;;;;;;-4.59;62.74;100926.13;1655072;83;21043;-79
2022/01/19 07:52:43;;;;;;;3.27;1.85;;;;;;;-4.52;62.50;100908.45;1684203;84;21035;-75
2022/01/19 07:55:26;;;;;;;3.85;2.27;;;;;;;-4.48;62.19;100910.56;1695136;82;21053;-79
2022/01/19 07:57:55;;;;;;;4.42;2.35;;;;;;;-4.40;62.51;100895.88;1694288;82;21886;-76
2022/01/19 08:00:34;;;;;;;5.28;2.30;;;;;;;-4.26;62.30;100898.30;1705510;84;21062;-78
2022/01/19 08:03:02;;;;;;;6.47;3.22;;;;;;;-4.16;61.87;100894.31;1675268;84;21349;-76
2022/01/19 08:05:39;;;;;;;7.83;3.80;;;;;;;-4.05;61.95;100895.08;1664523;84;21019;-76
2022/01/19 08:08:08;;;;;;;5.90;3.00;;;;;;;-3.93;61.74;100892.79;1704895;84;21550;-75
2022/01/19 08:10:34;;;;;;;8.65;4.30;;;;;;;-3.85;61.06;100892.27;1693653;84;21717;-75
2022/01/19 08:13:03;;;;;;;13.85;9.08;;;;;;;-3.81;60.92;100889.20;1711333;83;21390;-73
2022/01/19 08:15:31;;;;;;;8.40;4.78;;;;;;;-3.74;60.98;100894.71;1668290;84;20992;-72
2022/01/19 08:17:59;;;;;;;4.97;2.70;;;;;;;-3.65;60.72;100891.16;1702192;83;21035;-72
2022/01/19 08:20:26;;;;;;;6.05;3.35;;;;;;;-3.57;60.74;100885.43;1689708;84;21079;-74
2022/01/19 08:22:53;;;;;;;7.87;4.17;;;;;;;-3.51;60.51;100882.34;1694985;83;21800;-73
2022/01/19 08:25:23;;;;;;;6.25;3.37;;;;;;;-3.46;60.07;100875.84;1707454;83;21055;-72
2022/01/19 08:27:50;;;;;;;5.65;2.87;;;;;;;-3.45;59.74;100881.41;1703831;84;21566;-72
2022/01/19 08:30:18;;;;;;;25.00;14.25;;;;;;;-3.48;59.50;100871.95;1705005;84;21019;-74
2022/01/19 08:32:45;;;;;;;29.57;16.27;;;;;;;-3.47;59.63;100872.84;1706174;82;21032;-76
2022/01/19 08:35:23;;;;;;;6.00;3.30;;;;;;;-3.41;59.70;100874.47;1705400;82;23958;-74
2022/01/19 08:38:06;;;;;;;6.05;2.47;;;;;;;-3.35;59.34;100866.64;1626348;87;21117;-74
2022/01/19 08:40:36;;;;;;;11.20;6.87;;;;;;;-3.33;59.41;100861.86;1651386;85;21047;-71
2022/01/19 08:43:08;;;;;;;16.10;9.15;;;;;;;-3.26;59.45;100862.19;1689769;83;21032;-71
2022/01/19 08:45:35;;;;;;;17.95;9.25;;;;;;;-3.21;59.25;100856.94;1708188;83;21043;-69
2022/01/19 08:48:04;;;;;;;11.05;6.00;;;;;;;-3.21;58.69;100856.94;1704518;82;22528;-71
2022/01/19 08:50:48;;;;;;;8.73;5.12;;;;;;;-3.20;58.60;100850.45;1705889;84;21102;-72
2022/01/19 08:53:24;;;;;;;7.42;4.30;;;;;;;-3.21;58.25;100851.77;1705366;83;21043;-71
2022/01/19 08:55:52;;;;;;;5.92;2.80;;;;;;;-3.21;58.20;100842.73;1692727;83;21514;-71
2022/01/19 08:58:18;;;;;;;5.97;2.55;;;;;;;-3.19;58.58;100837.09;1691806;83;21172;-71
2022/01/19 09:00:45;;;;;;;3.72;2.35;;;;;;;-3.13;58.33;100835.72;1686021;83;21819;-70
2022/01/19 09:03:14;;;;;;;11.57;7.12;;;;;;;-3.10;58.14;100839.53;1699036;84;21015;-70
2022/01/19 09:05:40;;;;;;;4.75;2.40;;;;;;;-3.07;58.36;100838.66;1679787;83;20991;-70
2022/01/19 09:08:06;;;;;;;5.55;2.60;;;;;;;-3.03;58.26;100839.86;1672792;83;21012;-70
2022/01/19 09:10:33;;;;;;;7.12;4.20;;;;;;;-2.99;58.53;100835.48;1692953;83;21028;-68
2022/01/19 09:12:59;;;;;;;5.65;2.47;;;;;;;-2.86;58.75;100841.32;1691090;84;21842;-71
2022/01/19 09:15:27;;;;;;;5.37;2.50;;;;;;;-2.76;58.40;100848.89;1696306;83;21035;-71
2022/01/19 09:17:53;;;;;;;4.42;2.08;;;;;;;-2.74;57.92;100849.71;1679326;83;21024;-68
2022/01/19 09:20:21;;;;;;;7.85;4.85;;;;;;;-2.70;58.04;100849.20;1673246;85;39288;-72
2022/01/19 09:22:49;;;;;;;7.15;3.87;;;;;;;-2.63;58.30;100857.28;1695254;84;21439;-70
2022/01/19 09:25:15;;;;;;;12.73;6.50;;;;;;;-2.57;58.18;100857.18;1682917;84;21840;-70
2022/01/19 09:27:42;;;;;;;11.53;5.25;;;;;;;-2.49;58.32;100851.44;1689895;84;21129;-70
2022/01/19 09:30:14;;;;;;;11.35;6.35;;;;;;;-2.42;58.53;100861.20;1686129;84;20992;-69
2022/01/19 09:32:49;;;;;;;5.33;2.62;;;;;;;-2.34;58.34;100859.33;1671547;85;20961;-70
2022/01/19 09:35:22;;;;;;;6.60;3.03;;;;;;;-2.37;57.57;100864.13;1671443;85;21047;-71
2022/01/19 09:37:42;;;;;;;6.15;3.15;;;;;;;-2.45;57.71;100862.12;1670581;85;21765;-71
2022/01/19 09:40:10;;;;;;;8.00;4.67;;;;;;;-2.53;57.63;100866.58;1694413;82;20936;-70
2022/01/19 09:42:37;;;;;;;7.47;2.67;;;;;;;-2.54;57.77;100867.46;1696577;83;20959;-69
2022/01/19 09:45:05;;;;;;;7.62;2.87;;;;;;;-2.51;57.89;100871.31;1677619;84;20971;-70
2022/01/19 09:47:32;;;;;;;4.17;2.42;;;;;;;-2.44;58.24;100874.61;1672507;84;21116;-70
2022/01/19 09:49:58;;;;;;;4.92;2.20;;;;;;;-2.33;58.32;100880.44;1668632;86;22650;-70
2022/01/19 09:52:25;;;;;;;4.15;2.27;;;;;;;-2.29;57.62;100871.76;1668346;86;22296;-70
2022/01/19 09:54:54;;;;;;;5.80;2.90;;;;;;;-2.31;57.96;100871.80;1679255;84;20952;-73
2022/01/19 09:57:21;;;;;;;5.80;2.35;;;;;;;-2.29;57.61;100877.37;1686318;85;21052;-70
2022/01/19 09:59:47;;;;;;;4.60;2.45;;;;;;;-2.32;57.30;100871.38;1661187;85;21009;-70
2022/01/19 10:02:15;;;;;;;4.33;2.15;;;;;;;-2.42;57.29;100868.97;1636664;86;21783;-69
2022/01/19 10:04:46;;;;;;;5.03;2.30;;;;;;;-2.46;57.56;100866.03;1673453;84;20999;-70
2022/01/19 10:07:24;;;;;;;5.03;2.30;;;;;;;-2.41;57.57;100868.11;1673308;84;21106;-71
2022/01/19 10:10:02;;;;;;;4.45;2.40;;;;;;;-2.31;57.83;100860.59;1667963;86;21087;-69
2022/01/19 10:18:29;;;;;;;3.55;1.90;;;;;;;-2.09;56.63;100870.94;1703667;82;21131;-69
2022/01/19 10:21:16;;;;;;;3.75;2.00;;;;;;;-2.01;56.58;100851.38;1686725;82;21088;-69
2022/01/19 10:23:52;;;;;;;4.50;1.82;;;;;;;-1.91;56.47;100848.16;1701882;84;21023;-70
2022/01/19 10:26:27;;;;;;;3.55;1.70;;;;;;;-1.78;56.07;100842.67;1671704;85;21481;-70
2022/01/19 10:29:10;;;;;;;4.95;2.22;;;;;;;-1.67;55.46;100850.22;1686356;83;21813;-70
2022/01/19 10:31:40;;;;;;;3.90;2.15;;;;;;;-1.64;54.92;100842.40;1667923;86;21050;-70
2022/01/19 10:34:18;;;;;;;11.08;5.72;;;;;;;-1.66;55.31;100839.41;1668390;86;21011;-70
2022/01/19 10:36:52;;;;;;;11.57;6.83;;;;;;;-1.53;55.52;100831.35;1668039;86;21003;-70
2022/01/19 10:39:21;;;;;;;22.27;12.98;;;;;;;-1.30;54.95;100830.81;1687153;84;21052;-69
2022/01/19 10:42:02;;;;;;;29.67;17.90;;;;;;;-1.22;54.57;100829.34;1701610;83;21762;-70
2022/01/19 10:44:37;;;;;;;9.20;5.47;;;;;;;-1.12;55.23;100824.80;1699670;84;21704;-70
2022/01/19 10:47:05;;;;;;;11.60;6.45;;;;;;;-0.90;54.95;100820.33;1644604;87;21055;-69
2022/01/19 10:49:53;;;;;;;4.72;2.60;;;;;;;-0.73;54.38;100822.50;1671522;84;21004;-69
2022/01/19 10:52:34;;;;;;;5.47;3.20;;;;;;;-0.68;53.83;100828.84;1667374;86;21457;-68
2022/01/19 10:55:03;;;;;;;3.30;2.12;;;;;;;-0.68;53.27;100826.25;1690370;82;21827;-70
2022/01/19 10:57:32;;;;;;;4.17;2.10;;;;;;;-0.72;52.89;100825.49;1689790;83;21148;-70
2022/01/19 11:00:19;;;;;;;5.62;2.45;;;;;;;-0.55;53.59;100819.02;1659762;85;22032;-69
2022/01/19 11:02:48;;;;;;;4.28;1.98;;;;;;;-0.48;53.41;100814.93;1660171;86;21078;-69
2022/01/19 11:05:14;;;;;;;4.22;2.10;;;;;;;-0.45;53.32;100816.58;1659877;86;21047;-69
2022/01/19 11:07:42;;;;;;;4.60;2.35;;;;;;;-0.38;52.32;100808.59;1661336;83;21593;-69
2022/01/19 11:10:13;;;;;;;4.50;2.58;;;;;;;-0.28;52.37;100813.09;1663855;83;21511;-69
2022/01/19 11:12:53;;;;;;;4.80;2.90;;;;;;;-0.16;53.15;100801.50;1662198;84;21573;-70
2022/01/19 11:15:10;;;;;;;5.20;2.45;;;;;;;-0.07;51.83;100800.80;1670047;84;21062;-69
2022/01/19 11:17:37;;;;;;;4.62;2.20;;;;;;;-0.12;51.08;100807.84;1667447;86;21006;-69
2022/01/19 11:20:08;;;;;;;6.22;3.37;;;;;;;-0.20;50.93;100797.27;1667246;86;21803;-70
2022/01/19 11:23:13;;;;;;;2.80;1.65;;;;;;;-0.17;51.26;100801.10;1667196;86;21038;-69
2022/01/19 11:26:01;;;;;;;8.78;5.70;;;;;;;-0.17;50.09;100800.66;1635688;84;21019;-69
2022/01/19 11:28:35;;;;;;;10.90;7.45;;;;;;;-0.25;50.11;100798.72;1698554;83;21050;-70
2022/01/19 11:31:08;;;;;;;8.30;5.03;;;;;;;-0.22;50.08;100796.47;1664008;84;21075;-70
2022/01/19 11:33:51;;;;;;;10.80;7.17;;;;;;;-0.23;50.23;100793.03;1635336;86;22491;-70
2022/01/19 11:36:23;;;;;;;5.20;3.20;;;;;;;-0.14;50.57;100788.88;1670661;85;21059;-70
2022/01/19 11:38:54;;;;;;;5.55;2.90;;;;;;;-0.03;50.35;100793.30;1663260;86;21051;-69
2022/01/19 11:41:55;;;;;;;5.25;2.90;;;;;;;0.07;51.14;100780.89;1652212;86;21028;-71
2022/01/19 11:44:37;;;;;;;3.87;2.60;;;;;;;0.23;51.47;100774.80;1665440;83;20996;-70
2022/01/19 11:47:23;;;;;;;4.92;2.83;;;;;;;0.50;51.26;100777.85;1676014;84;21825;-70
2022/01/19 11:50:10;;;;;;;4.10;2.30;;;;;;;0.68;50.64;100782.08;1671565;85;21114;-70
2022/01/19 11:52:47;;;;;;;2.70;1.72;;;;;;;0.86;50.32;100778.84;1671764;85;21007;-69
2022/01/19 11:55:23;;;;;;;4.53;2.30;;;;;;;0.84;48.42;100775.45;1694517;83;21020;-69
2022/01/19 11:58:11;;;;;;;5.67;2.33;;;;;;;0.85;49.79;100770.65;1701079;82;21134;-68
2022/01/19 12:00:39;;;;;;;4.72;2.08;;;;;;;1.14;50.56;100770.97;1697326;84;21964;-70
2022/01/19 12:03:26;;;;;;;4.72;2.40;;;;;;;1.50;50.51;100764.09;1692692;84;21027;-69
2022/01/19 12:05:54;;;;;;;5.17;2.50;;;;;;;1.67;49.34;100765.64;1669375;86;21146;-70
2022/01/19 12:08:25;;;;;;;5.03;2.60;;;;;;;1.71;50.22;100761.55;1673104;84;21062;-70
2022/01/19 12:10:56;;;;;;;4.03;2.80;;;;;;;1.84;47.53;100758.52;1695471;84;21023;-71
2022/01/19 12:19:12;;;;;;;3.22;2.10;;;;;;;2.14;47.83;100763.02;1697343;84;21059;-69
2022/01/19 12:21:54;;;;;;;8.50;4.90;;;;;;;2.18;47.19;100759.37;1676629;84;21405;-70
2022/01/19 12:24:32;;;;;;;5.00;2.72;;;;;;;2.18;46.35;100759.37;1649776;86;20988;-70
2022/01/19 12:27:12;;;;;;;5.70;2.17;;;;;;;1.95;46.37;100768.08;1672799;83;23710;-69
2022/01/19 12:29:44;;;;;;;6.85;3.20;;;;;;;1.94;46.35;100765.08;1697009;84;20964;-69
2022/01/19 12:32:23;;;;;;;4.30;2.75;;;;;;;1.99;46.57;100767.89;1699241;83;21015;-68
2022/01/19 12:35:11;;;;;;;4.17;2.45;;;;;;;2.10;46.48;100776.59;1700620;83;21069;-70
2022/01/19 12:37:56;;;;;;;6.53;4.00;;;;;;;2.20;47.08;100762.31;1705117;82;20992;-69
2022/01/19 12:40:35;;;;;;;5.55;2.80;;;;;;;2.27;45.68;100756.41;1666076;86;24108;-69
2022/01/19 12:43:08;;;;;;;6.33;2.60;;;;;;;2.32;45.68;100764.03;1666288;86;21008;-71
2022/01/19 12:45:48;;;;;;;4.83;2.52;;;;;;;2.18;44.30;100759.37;1666102;86;21020;-69
2022/01/19 12:48:33;;;;;;;6.45;2.67;;;;;;;2.33;45.88;100768.38;1668829;83;21103;-69
2022/01/19 12:51:00;;;;;;;6.58;3.65;;;;;;;2.67;44.44;100764.80;1665311;86;20972;-70
2022/01/19 12:53:26;;;;;;;17.77;11.97;;;;;;;2.83;45.58;100759.81;1666428;86;21815;-70
2022/01/19 12:55:57;;;;;;;9.40;5.12;;;;;;;2.99;43.22;100760.00;1682750;83;21113;-70
2022/01/19 12:58:37;;;;;;;4.85;3.02;;;;;;;2.94;42.82;100753.69;1692264;83;21548;-69
2022/01/19 13:01:09;;;;;;;8.15;4.67;;;;;;;2.82;43.23;100757.66;1692119;84;21048;-70
2022/01/19 13:03:40;;;;;;;5.40;3.33;;;;;;;2.75;42.57;100752.30;1692596;84;21574;-70
2022/01/19 13:06:13;;;;;;;6.50;4.30;;;;;;;2.57;44.10;100757.80;1690641;84;20952;-69
2022/01/19 13:09:05;;;;;;;6.65;3.70;;;;;;;2.82;43.70;100755.52;1671903;85;20944;-70
2022/01/19 13:11:49;;;;;;;5.12;3.08;;;;;;;3.12;43.83;100759.90;1671877;84;21555;-70
2022/01/19 13:14:12;;;;;;;6.35;3.42;;;;;;;3.48;42.87;100760.09;1699121;84;21012;-69